createdAt,value
2023-05-24T00:00:09.550Z,101299.94
2023-05-24T00:02:37.958Z,101305.13
2023-05-24T00:05:05.405Z,101296.97
2023-05-24T00:07:31.862Z,101307.97
2023-05-24T00:09:58.299Z,101306.59
2023-05-24T00:12:25.056Z,101305.22
2023-05-24T00:14:51.790Z,101318.28
2023-05-24T00:17:18.230Z,101304.94
2023-05-24T00:19:44.625Z,101311.84
2023-05-24T00:22:11.919Z,101312.00
2023-05-24T00:24:38.345Z,101312.13
2023-05-24T00:27:04.954Z,101316.81
2023-05-24T00:29:32.380Z,101319.69
2023-05-24T00:31:58.905Z,101316.66
2023-05-24T00:34:25.329Z,101319.44
2023-05-24T00:36:51.812Z,101318.94
2023-05-24T00:39:18.213Z,101310.88
2023-05-24T00:41:44.618Z,101313.44
2023-05-24T00:44:11.304Z,101311.84
2023-05-24T00:46:38.173Z,101313.13
2023-05-24T00:49:04.805Z,101320.03
2023-05-24T00:51:32.538Z,101312.63
2023-05-24T00:53:59.525Z,101313.22
2023-05-24T00:56:27.822Z,101315.03
2023-05-24T00:58:57.108Z,101307.06
2023-05-24T01:01:26.549Z,101307.81
2023-05-24T01:03:54.435Z,101321.00
2023-05-24T01:06:21.699Z,101307.63
2023-05-24T01:08:54.224Z,101306.13
2023-05-24T01:11:50.798Z,101314.13
2023-05-24T01:14:29.223Z,101316.09
2023-05-24T01:17:04.142Z,101311.03
2023-05-24T01:19:51.341Z,101314.88
2023-05-24T01:22:50.847Z,101317.41
2023-05-24T01:25:28.324Z,101314.88
2023-05-24T01:27:55.278Z,101319.28
2023-05-24T01:30:22.211Z,101319.75
2023-05-24T01:32:49.098Z,101322.47
2023-05-24T01:35:15.653Z,101321.25
2023-05-24T01:37:42.058Z,101318.22
2023-05-24T01:40:09.201Z,101325.88
2023-05-24T01:42:46.408Z,101325.81
2023-05-24T01:45:31.229Z,101329.91
2023-05-24T01:48:18.714Z,101327.19
2023-05-24T01:51:04.995Z,101326.06
2023-05-24T01:53:41.566Z,101331.19
2023-05-24T01:56:09.981Z,101327.53
2023-05-24T01:58:37.518Z,101332.34
2023-05-24T02:01:04.040Z,101332.69
2023-05-24T02:03:31.333Z,101320.09
2023-05-24T02:05:57.825Z,101326.94
2023-05-24T02:08:24.234Z,101321.81
2023-05-24T02:10:50.650Z,101327.44
2023-05-24T02:13:18.219Z,101327.28
2023-05-24T02:15:44.849Z,101325.31
2023-05-24T02:18:11.358Z,101327.75
2023-05-24T02:20:37.939Z,101323.19
2023-05-24T02:23:04.453Z,101332.50
2023-05-24T02:25:32.114Z,101316.38
2023-05-24T02:27:59.580Z,101332.25
2023-05-24T02:30:27.125Z,101333.22
2023-05-24T02:32:53.618Z,101328.06
2023-05-24T02:35:20.621Z,101318.44
2023-05-24T02:37:47.073Z,101320.91
2023-05-24T02:40:13.529Z,101319.34
2023-05-24T02:42:39.988Z,101317.53
2023-05-24T02:45:07.062Z,101318.09
2023-05-24T02:47:33.559Z,101321.16
2023-05-24T02:49:59.985Z,101320.44
2023-05-24T02:52:26.720Z,101321.25
2023-05-24T02:54:53.139Z,101324.66
2023-05-24T02:57:19.553Z,101326.69
2023-05-24T02:59:45.956Z,101330.53
2023-05-24T03:02:13.743Z,101325.53
2023-05-24T03:04:40.367Z,101334.50
2023-05-24T03:07:06.792Z,101334.88
2023-05-24T03:09:33.474Z,101329.94
2023-05-24T03:11:59.902Z,101323.59
2023-05-24T03:14:26.307Z,101331.03
2023-05-24T03:16:52.751Z,101323.94
2023-05-24T03:19:19.197Z,101332.81
2023-05-24T03:21:45.612Z,101322.06
2023-05-24T03:24:13.183Z,101321.78
2023-05-24T03:26:42.608Z,101333.38
2023-05-24T03:29:09.065Z,101335.97
2023-05-24T03:31:35.558Z,101337.69
2023-05-24T03:34:02.024Z,101341.38
2023-05-24T03:36:29.219Z,101337.47
2023-05-24T03:38:58.172Z,101336.00
2023-05-24T03:41:24.820Z,101337.78
2023-05-24T03:43:52.622Z,101340.25
2023-05-24T03:46:19.135Z,101345.41
2023-05-24T03:48:45.620Z,101341.81
2023-05-24T03:51:12.036Z,101355.50
2023-05-24T03:53:38.459Z,101348.19
2023-05-24T03:56:04.936Z,101345.03
2023-05-24T03:58:31.376Z,101342.75
2023-05-24T04:00:57.787Z,101347.19
2023-05-24T04:03:26.020Z,101341.50
2023-05-24T04:05:53.782Z,101342.94
2023-05-24T04:08:20.210Z,101354.13
2023-05-24T04:10:46.631Z,101345.31
2023-05-24T04:13:13.042Z,101340.03
2023-05-24T04:15:39.462Z,101351.63
2023-05-24T04:18:06.023Z,101346.69
2023-05-24T04:20:32.700Z,101361.50
2023-05-24T04:22:59.223Z,101359.44
2023-05-24T04:25:26.824Z,101355.63
2023-05-24T04:27:53.572Z,101359.47
2023-05-24T04:30:21.254Z,101360.97
2023-05-24T04:32:48.504Z,101359.59
2023-05-24T04:35:15.491Z,101359.88
2023-05-24T04:37:42.209Z,101361.88
2023-05-24T04:40:09.311Z,101363.94
2023-05-24T04:42:35.793Z,101372.25
2023-05-24T04:45:02.901Z,101371.13
2023-05-24T04:47:29.809Z,101371.13
2023-05-24T04:49:56.296Z,101376.50
2023-05-24T04:52:22.756Z,101384.03
2023-05-24T04:54:49.939Z,101385.88
2023-05-24T04:57:16.511Z,101392.66
2023-05-24T04:59:43.620Z,101398.47
2023-05-24T05:02:10.211Z,101392.50
2023-05-24T05:04:36.675Z,101395.44
2023-05-24T05:07:03.813Z,101399.69
2023-05-24T05:09:30.440Z,101397.09
2023-05-24T05:11:56.889Z,101399.44
2023-05-24T05:14:23.303Z,101398.25
2023-05-24T05:16:49.894Z,101407.03
2023-05-24T05:19:16.521Z,101410.03
2023-05-24T05:21:42.960Z,101412.19
2023-05-24T05:24:09.574Z,101410.75
2023-05-24T05:26:36.025Z,101412.16
2023-05-24T05:29:02.479Z,101408.94
2023-05-24T05:31:29.676Z,101415.22
2023-05-24T05:33:56.209Z,101414.06
2023-05-24T05:36:22.725Z,101417.75
2023-05-24T05:38:49.135Z,101427.94
2023-05-24T05:41:15.683Z,101433.75
2023-05-24T05:43:42.103Z,101433.03
2023-05-24T05:46:08.592Z,101428.16
2023-05-24T05:48:35.045Z,101431.13
2023-05-24T05:51:01.462Z,101438.16
2023-05-24T05:53:27.882Z,101442.88
2023-05-24T05:55:54.390Z,101439.16
2023-05-24T05:58:21.013Z,101449.47
2023-05-24T06:00:47.421Z,101438.81
2023-05-24T06:03:14.028Z,101447.03
2023-05-24T06:05:40.623Z,101449.97
2023-05-24T06:08:07.039Z,101446.34
2023-05-24T06:10:33.540Z,101453.28
2023-05-24T06:13:02.965Z,101446.47
2023-05-24T06:15:29.494Z,101460.47
2023-05-24T06:17:55.944Z,101457.00
2023-05-24T06:20:22.989Z,101453.34
2023-05-24T06:22:50.633Z,101456.88
2023-05-24T06:25:19.532Z,101466.78
2023-05-24T06:27:46.091Z,101472.41
2023-05-24T06:30:13.446Z,101463.38
2023-05-24T06:32:40.123Z,101465.78
2023-05-24T06:35:07.858Z,101466.91
2023-05-24T06:37:34.450Z,101468.53
2023-05-24T06:40:00.979Z,101469.09
2023-05-24T06:42:27.461Z,101473.13
2023-05-24T06:44:54.232Z,101473.19
2023-05-24T06:47:22.252Z,101478.53
2023-05-24T06:49:49.946Z,101485.38
2023-05-24T06:52:16.658Z,101479.66
2023-05-24T06:54:43.128Z,101487.00
2023-05-24T06:57:09.542Z,101485.44
2023-05-24T06:59:36.311Z,101497.56
2023-05-24T07:02:04.156Z,101493.94
2023-05-24T07:04:31.207Z,101501.50
2023-05-24T07:06:58.321Z,101505.66
2023-05-24T07:09:24.942Z,101494.59
2023-05-24T07:11:51.498Z,101497.56
2023-05-24T07:14:17.905Z,101499.16
2023-05-24T07:16:44.349Z,101508.06
2023-05-24T07:19:10.826Z,101510.16
2023-05-24T07:21:37.573Z,101517.00
2023-05-24T07:24:04.338Z,101505.16
2023-05-24T07:26:30.821Z,101510.97
2023-05-24T07:28:57.313Z,101497.28
2023-05-24T07:31:23.760Z,101505.91
2023-05-24T07:33:50.196Z,101507.38
2023-05-24T07:36:16.613Z,101515.06
2023-05-24T07:38:43.515Z,101514.56
2023-05-24T07:41:09.954Z,101528.03
2023-05-24T07:43:37.585Z,101530.28
2023-05-24T07:46:04.366Z,101529.13
2023-05-24T07:48:31.141Z,101531.13
2023-05-24T07:50:57.585Z,101533.53
2023-05-24T07:53:24.077Z,101542.69
2023-05-24T07:55:51.701Z,101541.53
2023-05-24T07:58:18.150Z,101534.94
2023-05-24T08:00:44.586Z,101543.13
2023-05-24T08:03:14.445Z,101542.06
2023-05-24T08:05:41.118Z,101543.13
2023-05-24T08:08:07.860Z,101538.06
2023-05-24T08:10:34.484Z,101544.50
2023-05-24T08:13:01.101Z,101542.84
2023-05-24T08:15:27.497Z,101546.44
2023-05-24T08:17:53.981Z,101543.47
2023-05-24T08:20:20.936Z,101547.16
2023-05-24T08:22:48.576Z,101552.47
2023-05-24T08:25:15.385Z,101557.34
2023-05-24T08:27:41.856Z,101559.13
2023-05-24T08:30:08.756Z,101558.78
2023-05-24T08:32:35.356Z,101561.44
2023-05-24T08:35:18.404Z,101558.63
2023-05-24T08:37:46.056Z,101556.50
2023-05-24T08:40:12.791Z,101558.06
2023-05-24T08:42:39.814Z,101560.34
2023-05-24T08:45:12.548Z,101568.50
2023-05-24T08:47:39.887Z,101569.66
2023-05-24T08:50:07.296Z,101578.06
2023-05-24T08:52:34.184Z,101567.16
2023-05-24T08:55:01.478Z,101566.31
2023-05-24T08:57:28.098Z,101573.72
2023-05-24T08:59:56.216Z,101578.91
2023-05-24T09:02:23.786Z,101580.03
2023-05-24T09:04:52.808Z,101583.16
2023-05-24T09:07:24.051Z,101578.94
2023-05-24T09:09:57.959Z,101592.53
2023-05-24T09:12:36.297Z,101595.59
2023-05-24T09:15:06.617Z,101583.63
2023-05-24T09:17:34.759Z,101580.91
2023-05-24T09:20:01.526Z,101588.13
2023-05-24T09:22:30.565Z,101585.22
2023-05-24T09:25:08.036Z,101586.91
2023-05-24T09:27:35.171Z,101587.31
2023-05-24T09:30:03.365Z,101580.25
2023-05-24T09:32:31.508Z,101582.28
2023-05-24T09:34:59.024Z,101588.09
2023-05-24T09:37:32.729Z,101584.53
2023-05-24T09:40:00.063Z,101586.91
2023-05-24T09:42:28.787Z,101584.44
2023-05-24T09:45:09.345Z,101576.84
2023-05-24T09:47:37.626Z,101585.16
2023-05-24T09:50:06.900Z,101580.88
2023-05-24T09:52:37.077Z,101579.53
2023-05-24T09:55:20.242Z,101593.03
2023-05-24T09:57:53.135Z,101591.25
2023-05-24T10:00:23.747Z,101595.56
2023-05-24T10:03:13.669Z,101593.03
2023-05-24T10:05:46.913Z,101596.44
2023-05-24T10:08:14.468Z,101599.78
2023-05-24T10:10:42.784Z,101598.72
2023-05-24T10:13:10.346Z,101599.91
2023-05-24T10:15:36.793Z,101592.63
2023-05-24T10:18:10.375Z,101605.69
2023-05-24T10:20:41.148Z,101597.63
2023-05-24T10:23:10.159Z,101593.97
2023-05-24T10:25:41.119Z,101598.00
2023-05-24T10:28:12.657Z,101603.44
2023-05-24T10:30:52.404Z,101599.03
2023-05-24T10:33:21.109Z,101594.91
2023-05-24T10:35:47.709Z,101584.91
2023-05-24T10:38:14.281Z,101598.63
2023-05-24T10:40:42.732Z,101592.03
2023-05-24T10:43:10.134Z,101603.66
2023-05-24T10:45:39.119Z,101602.13
2023-05-24T10:48:15.543Z,101599.59
2023-05-24T10:50:43.071Z,101607.28
2023-05-24T10:53:13.273Z,101601.03
2023-05-24T10:55:57.268Z,101602.63
2023-05-24T10:58:42.495Z,101596.50
2023-05-24T11:01:27.012Z,101600.13
2023-05-24T11:04:05.040Z,101601.06
2023-05-24T11:06:54.159Z,101599.75
2023-05-24T11:09:21.059Z,101611.34
2023-05-24T11:11:54.744Z,101601.59
2023-05-24T11:14:27.712Z,101605.06
2023-05-24T11:16:54.772Z,101612.00
2023-05-24T11:19:30.743Z,101607.81
2023-05-24T11:22:01.301Z,101599.97
2023-05-24T11:24:28.968Z,101598.50
2023-05-24T11:26:57.187Z,101597.84
2023-05-24T11:29:24.219Z,101598.09
2023-05-24T11:32:04.285Z,101606.19
2023-05-24T11:34:32.104Z,101605.19
2023-05-24T11:37:00.423Z,101603.16
2023-05-24T11:39:35.474Z,101598.56
2023-05-24T11:42:06.347Z,101594.53
2023-05-24T11:44:33.496Z,101598.41
2023-05-24T11:47:05.149Z,101605.16
2023-05-24T11:49:31.593Z,101598.84
2023-05-24T11:51:59.088Z,101591.59
2023-05-24T11:54:27.333Z,101594.22
2023-05-24T11:56:54.508Z,101595.78
2023-05-24T11:59:26.041Z,101605.56
2023-05-24T12:02:03.080Z,101605.00
2023-05-24T12:04:30.962Z,101600.69
2023-05-24T12:06:58.016Z,101611.03
2023-05-24T12:09:25.217Z,101605.00
2023-05-24T12:11:52.759Z,101614.47
2023-05-24T12:14:23.582Z,101607.63
2023-05-24T12:16:50.440Z,101619.13
2023-05-24T12:19:31.846Z,101623.25
2023-05-24T12:22:01.073Z,101603.00
2023-05-24T12:24:28.107Z,101606.31
2023-05-24T12:27:01.688Z,101619.50
2023-05-24T12:29:33.117Z,101620.81
2023-05-24T12:31:59.781Z,101616.63
2023-05-24T12:34:26.477Z,101612.28
2023-05-24T12:36:53.359Z,101606.47
2023-05-24T12:39:36.763Z,101607.00
2023-05-24T12:42:04.397Z,101609.81
2023-05-24T12:44:32.917Z,101601.91
2023-05-24T12:47:01.501Z,101607.06
2023-05-24T12:49:28.184Z,101602.59
2023-05-24T12:51:55.697Z,101603.22
2023-05-24T12:54:26.764Z,101607.97
2023-05-24T12:56:56.619Z,101612.09
2023-05-24T12:59:23.646Z,101616.22
2023-05-24T13:01:53.421Z,101609.16
2023-05-24T13:04:21.853Z,101614.50
2023-05-24T13:06:48.858Z,101612.56
2023-05-24T13:09:18.089Z,101621.00
2023-05-24T19:54:57.739Z,101712.25
2023-05-24T19:57:24.163Z,101707.94
2023-05-24T19:59:50.563Z,101712.56
2023-05-24T20:02:16.998Z,101719.38
2023-05-24T20:04:43.989Z,101719.97
2023-05-24T20:07:10.821Z,101711.38
2023-05-24T20:09:37.318Z,101715.34
2023-05-24T20:12:04.484Z,101716.25
2023-05-24T20:14:31.605Z,101718.72
2023-05-24T20:16:58.726Z,101720.22
2023-05-24T20:19:26.191Z,101712.41
2023-05-24T20:21:52.962Z,101725.50
2023-05-24T20:24:19.467Z,101725.22
2023-05-24T20:26:45.952Z,101728.94
2023-05-24T20:29:12.368Z,101725.47
2023-05-24T20:31:39.137Z,101718.78
2023-05-24T20:34:05.606Z,101723.91
2023-05-24T20:36:32.830Z,101725.63
2023-05-24T20:38:59.375Z,101727.19
2023-05-24T20:44:26.684Z,101733.44
2023-05-24T20:47:34.836Z,101725.47
2023-05-24T20:49:59.173Z,101722.19
2023-05-24T20:52:25.579Z,101728.41
2023-05-24T20:54:52.018Z,101723.81
2023-05-24T20:57:18.443Z,101727.03
2023-05-24T20:59:44.919Z,101728.69
2023-05-24T21:02:11.370Z,101730.72
2023-05-24T21:04:37.862Z,101732.91
2023-05-24T21:07:04.466Z,101734.84
2023-05-24T21:09:30.891Z,101737.25
2023-05-24T21:11:57.327Z,101751.56
2023-05-24T21:14:23.715Z,101751.19
2023-05-24T21:16:50.137Z,101756.66
2023-05-24T21:19:16.609Z,101753.19
2023-05-24T21:21:43.053Z,101757.91
2023-05-24T21:24:09.446Z,101761.34
2023-05-24T21:26:35.875Z,101755.00
2023-05-24T21:29:02.299Z,101755.59
2023-05-24T21:31:30.035Z,101763.06
2023-05-24T21:33:56.760Z,101761.59
2023-05-24T21:36:23.230Z,101759.06
2023-05-24T21:38:49.666Z,101766.38
2023-05-24T21:41:16.087Z,101771.13
2023-05-24T21:43:42.853Z,101770.53
2023-05-24T21:46:09.352Z,101767.84
2023-05-24T21:48:35.764Z,101778.09
2023-05-24T21:51:02.236Z,101775.38
2023-05-24T21:53:28.633Z,101778.03
2023-05-24T21:55:55.060Z,101779.03
2023-05-24T21:58:21.521Z,101777.06
2023-05-24T22:00:47.950Z,101780.78
2023-05-24T22:03:14.658Z,101782.53
2023-05-24T22:05:41.163Z,101782.88
2023-05-24T22:08:07.615Z,101785.50
2023-05-24T22:10:34.193Z,101789.00
2023-05-24T22:13:01.475Z,101789.00
2023-05-24T22:15:28.311Z,101802.13
2023-05-24T22:17:58.517Z,101795.66
2023-05-24T22:20:26.208Z,101807.84
2023-05-24T22:22:53.642Z,101803.47
2023-05-24T22:25:20.924Z,101796.69
2023-05-24T22:27:51.385Z,101803.03
2023-05-24T22:30:17.883Z,101796.69
2023-05-24T22:32:44.367Z,101794.56
2023-05-24T22:35:10.913Z,101795.31
2023-05-24T22:37:37.425Z,101792.00
2023-05-24T22:40:04.763Z,101787.81
2023-05-24T22:42:31.722Z,101797.47
2023-05-24T22:44:58.141Z,101795.81
2023-05-24T22:47:24.695Z,101795.00
2023-05-24T22:49:54.101Z,101801.78
2023-05-24T22:52:20.799Z,101801.25
2023-05-24T22:54:47.256Z,101802.59
2023-05-24T22:57:13.657Z,101809.09
2023-05-24T22:59:40.087Z,101807.22
2023-05-24T23:02:06.651Z,101804.72
2023-05-24T23:04:33.554Z,101801.38
2023-05-24T23:07:01.556Z,101797.56
2023-05-24T23:09:34.713Z,101799.69
2023-05-24T23:12:07.206Z,101800.91
2023-05-24T23:14:38.250Z,101805.97
2023-05-24T23:17:06.682Z,101801.25
2023-05-24T23:19:33.261Z,101799.97
2023-05-24T23:21:59.747Z,101797.00
2023-05-24T23:24:26.833Z,101798.88
2023-05-24T23:26:55.743Z,101797.38
2023-05-24T23:29:22.443Z,101803.78
2023-05-24T23:31:48.924Z,101804.56
2023-05-24T23:34:15.499Z,101808.91
2023-05-24T23:36:41.964Z,101802.53
2023-05-24T23:39:10.975Z,101803.06
2023-05-24T23:41:37.437Z,101805.34
2023-05-24T23:44:03.875Z,101801.38
2023-05-24T23:46:30.328Z,101801.09
2023-05-24T23:48:56.821Z,101811.72
2023-05-24T23:51:23.299Z,101813.72
2023-05-24T23:53:49.733Z,101812.25
2023-05-24T23:56:16.367Z,101804.16
2023-05-24T23:58:43.834Z,101807.84
